Time;durP1;ratioP1;P1;durP2;ratioP2;P2;SDS_P1;SDS_P2;PMS_P1;PMS_P2;Temp;Humidity;BMP_temperature;BMP_pressure;BME280_temperature;BME280_humidity;BME280_pressure;Samples;Min_cycle;Max_cycle;Signal;HPM_P1;HPM_P2
2022/10/11 00:00:59;;;;;;;5.33;3.90;;;;;;;16.05;69.46;99314.66;5108413;28;20575;-78
2022/10/11 00:03:43;;;;;;;5.47;3.70;;;;;;;16.06;69.48;99327.06;5108465;28;20565;-78
2022/10/11 00:06:24;;;;;;;5.63;3.67;;;;;;;16.06;69.49;99328.88;5108175;28;21111;-78
2022/10/11 00:09:06;;;;;;;6.00;3.47;;;;;;;16.04;68.91;99333.47;5108672;28;20564;-78
2022/10/11 00:11:50;;;;;;;4.77;3.73;;;;;;;16.06;69.11;99336.88;5108324;28;20556;-80
2022/10/11 00:14:33;;;;;;;4.97;4.17;;;;;;;16.04;69.58;99339.69;5128904;27;20577;-78
2022/10/11 00:17:15;;;;;;;6.00;4.20;;;;;;;15.99;70.23;99336.50;5108216;28;21112;-78
2022/10/11 00:19:58;;;;;;;5.63;4.43;;;;;;;16.02;70.65;99341.59;5108140;28;20552;-78
2022/10/11 00:22:40;;;;;;;7.80;4.17;;;;;;;16.03;70.62;99343.31;5149233;27;20949;-78
2022/10/11 00:25:23;;;;;;;6.20;4.00;;;;;;;16.04;70.54;99342.34;5109008;28;20552;-78
2022/10/11 00:28:07;;;;;;;5.50;3.80;;;;;;;16.07;70.21;99339.41;5109423;28;20552;-78
2022/10/11 00:30:49;;;;;;;4.47;3.50;;;;;;;16.10;70.28;99344.53;5109533;28;20552;-78
2022/10/11 00:33:31;;;;;;;6.27;3.70;;;;;;;16.13;70.01;99348.78;5109351;28;21056;-78
2022/10/11 00:36:16;;;;;;;5.13;3.50;;;;;;;16.16;69.84;99353.91;5109082;28;21078;-79
2022/10/11 00:38:59;;;;;;;4.80;3.03;;;;;;;16.17;69.50;99351.13;5109664;28;20553;-78
2022/10/11 00:41:41;;;;;;;4.23;3.23;;;;;;;16.03;69.60;99327.28;5109191;28;20560;-77
2022/10/11 00:44:26;;;;;;;8.20;4.53;;;;;;;16.16;69.97;99344.06;5172033;27;20548;-77
2022/10/11 00:47:15;;;;;;;4.33;2.87;;;;;;;16.17;70.19;99351.13;5109540;28;20548;-77
2022/10/11 00:50:01;;;;;;;3.97;3.13;;;;;;;16.20;69.93;99349.16;5107430;28;20577;-78
2022/10/11 00:52:50;;;;;;;6.93;3.33;;;;;;;15.98;70.01;99313.41;5170767;27;20558;-77
2022/10/11 00:55:37;;;;;;;4.57;3.37;;;;;;;16.22;70.62;99348.06;5108225;28;21040;-78
2022/10/11 00:58:22;;;;;;;4.27;3.30;;;;;;;16.25;70.41;99350.50;5149776;27;20561;-78
2022/10/11 01:01:05;;;;;;;3.70;2.70;;;;;;;16.27;70.55;99356.59;5108141;28;21102;-79
2022/10/11 01:03:47;;;;;;;3.60;3.10;;;;;;;16.28;70.42;99362.78;5108425;28;20556;-77
2022/10/11 01:06:32;;;;;;;6.10;3.60;;;;;;;16.28;70.89;99358.31;5128580;27;21060;-78
2022/10/11 01:09:15;;;;;;;6.27;3.57;;;;;;;16.26;71.57;99346.03;5108455;28;20592;-79
2022/10/11 01:12:01;;;;;;;3.83;2.87;;;;;;;16.30;71.24;99350.16;5108548;28;20564;-78
2022/10/11 01:15:10;;;;;;;3.40;3.00;;;;;;;16.32;72.10;99361.59;5108269;28;20565;-79
2022/10/11 01:18:00;;;;;;;5.43;3.10;;;;;;;16.31;71.75;99362.56;5108539;28;20552;-78
2022/10/11 01:20:59;;;;;;;3.80;2.60;;;;;;;16.33;71.82;99368.63;5108194;28;21278;-80
2022/10/11 01:24:14;;;;;;;5.83;3.27;;;;;;;16.28;71.68;99363.66;5108268;28;20560;-79
2022/10/11 01:30:22;;;;;;;5.60;3.27;;;;;;;16.36;71.59;99376.41;5142630;27;21027;-79
2022/10/11 01:33:17;;;;;;;7.40;3.50;;;;;;;16.28;71.73;99368.13;5192809;27;20542;-78
2022/10/11 01:36:07;;;;;;;3.50;3.10;;;;;;;16.35;72.55;99374.69;5109755;28;20704;-78
2022/10/11 01:38:57;;;;;;;3.87;3.33;;;;;;;16.28;72.04;99362.78;5109491;28;20558;-78
2022/10/11 01:41:42;;;;;;;5.50;3.37;;;;;;;16.29;71.77;99375.19;5109647;28;20596;-77
2022/10/11 01:44:25;;;;;;;9.80;4.30;;;;;;;16.38;71.70;99385.16;5089270;28;20542;-78
2022/10/11 01:47:07;;;;;;;4.53;3.57;;;;;;;16.38;71.75;99386.00;5109620;28;20562;-79
2022/10/11 01:49:56;;;;;;;3.77;3.07;;;;;;;16.38;72.36;99386.00;5108227;28;20575;-77
2022/10/11 01:52:44;;;;;;;6.60;3.60;;;;;;;16.37;72.28;99378.09;5107728;28;20561;-77
2022/10/11 01:55:31;;;;;;;7.07;4.00;;;;;;;16.35;72.72;99393.41;5108112;28;20564;-78
2022/10/11 01:58:29;;;;;;;5.13;3.43;;;;;;;16.34;72.59;99394.38;5108480;28;20560;-78
2022/10/11 02:01:21;;;;;;;4.83;3.60;;;;;;;16.33;72.10;99398.00;5141323;27;21098;-78
2022/10/11 02:04:11;;;;;;;8.83;5.17;;;;;;;16.31;72.53;99395.50;5149711;27;20549;-77
2022/10/11 02:07:00;;;;;;;6.37;4.50;;;;;;;16.23;72.69;99397.88;5108073;28;20556;-79
2022/10/11 02:09:49;;;;;;;4.97;4.37;;;;;;;16.27;72.98;99403.84;5108449;28;21079;-78
2022/10/11 02:12:38;;;;;;;5.57;3.70;;;;;;;16.22;73.08;99400.66;5154622;27;20549;-79
2022/10/11 02:15:23;;;;;;;7.33;4.50;;;;;;;16.13;72.89;99403.09;5183780;27;20563;-78
2022/10/11 02:18:13;;;;;;;9.10;4.57;;;;;;;16.13;73.31;99411.09;5121532;28;20552;-79
2022/10/11 02:20:59;;;;;;;9.93;4.73;;;;;;;16.08;73.75;99409.75;5119971;28;20542;-79
2022/10/11 02:23:48;;;;;;;12.63;5.50;;;;;;;16.02;73.90;99416.41;5141715;27;20527;-78
2022/10/11 02:26:34;;;;;;;7.57;4.70;;;;;;;16.04;73.70;99411.81;5109445;28;20609;-78
2022/10/11 02:29:19;;;;;;;10.73;4.67;;;;;;;16.02;73.72;99427.09;5170490;27;20608;-77
2022/10/11 02:32:02;;;;;;;9.23;4.83;;;;;;;16.01;73.82;99427.22;5108298;28;20560;-78
2022/10/11 02:34:51;;;;;;;6.80;4.90;;;;;;;16.01;73.91;99435.22;5108250;28;20564;-79
2022/10/11 02:37:42;;;;;;;7.90;5.47;;;;;;;15.99;73.84;99432.69;5108761;28;20548;-78
2022/10/11 02:40:28;;;;;;;9.53;5.87;;;;;;;15.96;73.85;99430.22;5109347;28;20522;-78
2022/10/11 02:43:17;;;;;;;8.37;5.70;;;;;;;15.96;73.81;99427.56;5109816;28;20559;-78
2022/10/11 02:46:04;;;;;;;10.50;5.07;;;;;;;15.83;73.70;99410.75;5108912;28;20560;-79
2022/10/11 02:48:47;;;;;;;8.40;4.23;;;;;;;15.89;73.45;99425.47;5109550;28;20556;-79
2022/10/11 02:51:31;;;;;;;13.20;5.63;;;;;;;15.88;73.54;99427.28;5129825;27;20570;-78
2022/10/11 02:54:15;;;;;;;5.53;4.47;;;;;;;15.86;73.20;99437.22;5109245;28;20586;-78
2022/10/11 02:56:58;;;;;;;7.50;4.60;;;;;;;15.77;72.87;99428.09;5109162;28;21420;-78
2022/10/11 02:59:41;;;;;;;4.70;4.10;;;;;;;15.69;73.06;99429.66;5235055;27;20899;-78
2022/10/11 03:02:24;;;;;;;6.73;4.60;;;;;;;15.70;72.64;99440.19;5107112;28;20629;-78
2022/10/11 03:05:08;;;;;;;6.13;4.30;;;;;;;15.69;72.70;99453.69;5108322;28;20548;-78
2022/10/11 03:07:52;;;;;;;7.73;4.80;;;;;;;15.65;72.85;99449.53;5108523;28;20570;-78
2022/10/11 03:10:34;;;;;;;4.63;3.83;;;;;;;15.54;72.48;99438.75;5108211;28;21116;-78
2022/10/11 03:13:17;;;;;;;5.67;4.57;;;;;;;15.61;72.50;99448.03;5108365;28;21157;-78
2022/10/11 03:16:00;;;;;;;5.13;4.63;;;;;;;15.58;72.27;99449.09;5108094;28;20557;-79
2022/10/11 03:18:43;;;;;;;6.07;4.13;;;;;;;15.61;72.14;99451.56;5108224;28;20556;-78
2022/10/11 03:21:27;;;;;;;5.30;4.50;;;;;;;15.63;72.12;99446.09;5108385;28;20544;-79
2022/10/11 03:24:10;;;;;;;7.30;4.20;;;;;;;15.62;72.09;99455.06;5108527;28;20548;-78
2022/10/11 03:26:53;;;;;;;6.23;4.87;;;;;;;15.59;72.54;99455.28;5171640;27;20579;-78
2022/10/11 03:29:37;;;;;;;5.07;4.60;;;;;;;15.56;72.71;99460.88;5109585;28;20547;-78
2022/10/11 03:32:20;;;;;;;8.60;4.90;;;;;;;15.52;72.73;99460.22;5109436;28;20544;-78
2022/10/11 03:35:04;;;;;;;7.43;5.33;;;;;;;15.51;72.80;99463.84;5109410;28;21073;-78
2022/10/11 03:37:47;;;;;;;8.77;5.17;;;;;;;15.39;72.43;99449.56;5108969;28;20554;-78
2022/10/11 03:40:28;;;;;;;4.70;4.30;;;;;;;15.46;72.24;99463.31;5109626;28;20563;-78
2022/10/11 03:43:12;;;;;;;5.93;4.60;;;;;;;15.37;72.50;99456.00;5171679;27;20557;-78
2022/10/11 03:45:54;;;;;;;6.70;5.20;;;;;;;15.40;72.44;99471.78;5171577;27;20579;-79
2022/10/11 03:48:37;;;;;;;7.03;4.77;;;;;;;15.30;72.69;99466.28;5109708;28;20555;-78
2022/10/11 03:51:19;;;;;;;6.90;4.97;;;;;;;15.34;72.97;99472.22;5109173;28;20544;-79
2022/10/11 03:54:00;;;;;;;6.97;4.73;;;;;;;15.30;72.93;99476.94;5109117;28;20524;-78
2022/10/11 03:56:44;;;;;;;6.07;4.90;;;;;;;15.24;72.80;99477.38;5109187;28;20580;-79
2022/10/11 03:59:27;;;;;;;5.50;5.00;;;;;;;15.14;72.84;99476.31;5109473;28;20548;-77
2022/10/11 04:02:09;;;;;;;5.17;4.10;;;;;;;15.14;73.03;99481.66;5108285;28;20574;-78
2022/10/11 04:04:53;;;;;;;5.00;4.50;;;;;;;15.12;72.74;99493.41;5170052;27;20553;-79
2022/10/11 04:07:36;;;;;;;5.67;4.60;;;;;;;15.00;72.59;99484.44;5107883;28;20559;-78
2022/10/11 04:10:19;;;;;;;4.87;4.37;;;;;;;14.93;72.92;99493.84;5108298;28;20552;-78
2022/10/11 04:13:02;;;;;;;6.10;4.70;;;;;;;14.81;73.08;99495.56;5108184;28;20547;-77
2022/10/11 04:15:44;;;;;;;7.00;5.17;;;;;;;14.71;72.94;99495.34;5108291;28;20562;-78
2022/10/11 04:18:27;;;;;;;5.73;5.20;;;;;;;14.63;73.39;99503.00;5108783;28;20566;-77
2022/10/11 04:21:10;;;;;;;7.23;5.50;;;;;;;14.55;72.86;99494.69;5108314;28;20555;-77
2022/10/11 04:23:53;;;;;;;7.23;4.77;;;;;;;14.51;73.14;99503.00;5108361;28;20554;-78
2022/10/11 04:26:34;;;;;;;8.83;5.57;;;;;;;14.43;72.90;99506.19;5109111;28;21087;-77
2022/10/11 04:29:18;;;;;;;5.90;4.60;;;;;;;14.43;72.92;99505.34;5109699;28;20552;-78
2022/10/11 04:31:59;;;;;;;6.13;4.73;;;;;;;14.38;72.81;99513.59;5109213;28;20556;-78
2022/10/11 04:34:41;;;;;;;6.10;4.67;;;;;;;14.32;72.84;99508.72;5109604;28;20551;-77
2022/10/11 04:37:24;;;;;;;5.63;4.70;;;;;;;14.27;72.74;99513.47;5108838;28;21017;-78
2022/10/11 04:40:08;;;;;;;6.37;4.70;;;;;;;14.15;72.81;99511.63;5109297;28;20544;-78
2022/10/11 04:42:52;;;;;;;4.93;4.43;;;;;;;14.00;72.94;99498.38;5089075;27;20538;-79
2022/10/11 04:45:35;;;;;;;8.77;5.13;;;;;;;14.00;72.71;99530.34;5171099;27;20581;-79
2022/10/11 04:48:17;;;;;;;5.77;5.10;;;;;;;13.87;72.99;99515.25;5234785;27;20585;-77
2022/10/11 04:51:01;;;;;;;6.83;5.23;;;;;;;13.82;73.02;99528.91;5107538;28;20568;-78
2022/10/11 04:53:44;;;;;;;6.60;5.43;;;;;;;13.74;72.94;99528.50;5108502;28;20564;-78
2022/10/11 04:56:26;;;;;;;6.80;4.30;;;;;;;13.66;73.10;99536.16;5170455;27;20551;-78
2022/10/11 04:59:09;;;;;;;6.40;5.17;;;;;;;13.60;72.80;99531.22;5108509;28;20560;-78
2022/10/11 05:01:52;;;;;;;6.63;4.97;;;;;;;13.57;73.17;99537.59;5108119;28;20560;-77
2022/10/11 05:04:34;;;;;;;9.33;6.20;;;;;;;13.56;73.15;99546.53;5108225;28;20570;-77
2022/10/11 07:54:35;;;;;;;5.20;1.70;;;;;;;13.48;71.66;99756.38;5147401;27;20580;-77
2022/10/11 07:57:36;;;;;;;3.70;2.37;;;;;;;14.22;68.85;99769.53;5172005;27;20569;-79
2022/10/11 08:00:44;;;;;;;5.83;1.90;;;;;;;14.81;66.50;99778.25;5171803;27;21338;-78
2022/10/11 08:03:48;;;;;;;5.07;1.87;;;;;;;15.24;63.66;99786.91;5171809;27;20514;-77
2022/10/11 08:06:48;;;;;;;6.17;2.23;;;;;;;15.51;62.51;99788.69;5129502;27;20617;-76
2022/10/11 08:09:44;;;;;;;6.37;2.00;;;;;;;15.70;60.73;99794.53;5151721;27;20560;-77
2022/10/11 08:12:47;;;;;;;6.77;1.80;;;;;;;15.68;59.39;99780.44;5233992;27;20916;-78
2022/10/11 08:15:50;;;;;;;6.30;1.80;;;;;;;16.03;59.25;99797.53;5176659;27;20526;-78
2022/10/11 08:19:04;;;;;;;5.40;1.33;;;;;;;16.84;57.90;99808.66;5172052;27;20518;-80
2022/10/11 08:22:04;;;;;;;5.00;1.90;;;;;;;18.24;54.68;99832.81;5234274;27;20562;-79
2022/10/11 08:25:04;;;;;;;6.10;2.20;;;;;;;20.85;48.76;99859.31;5234598;27;20520;-82
2022/10/11 08:28:05;;;;;;;5.03;2.00;;;;;;;22.87;44.27;99872.75;5234157;27;20521;-76
2022/10/11 08:31:02;;;;;;;6.70;1.53;;;;;;;22.40;43.00;99859.25;5108994;27;20516;-81
2022/10/11 08:34:04;;;;;;;4.73;1.70;;;;;;;22.25;44.79;99865.28;5234942;27;20562;-83
2022/10/11 08:37:02;;;;;;;4.70;1.60;;;;;;;23.36;43.67;99867.94;5131145;27;20513;-81
2022/10/11 08:39:57;;;;;;;7.90;1.43;;;;;;;22.57;42.72;99874.69;5110280;27;20972;-80
2022/10/11 08:43:03;;;;;;;6.13;1.90;;;;;;;21.66;44.88;99864.44;5130877;27;20572;-79
2022/10/11 08:46:02;;;;;;;6.33;1.50;;;;;;;21.25;45.18;99852.06;5172602;27;20534;-85
2022/10/11 08:49:01;;;;;;;4.07;1.60;;;;;;;21.07;45.34;99851.84;5130961;27;20533;-77
2022/10/11 08:52:01;;;;;;;5.13;1.77;;;;;;;21.12;43.81;99851.44;5088939;28;20513;-81
2022/10/11 08:55:21;;;;;;;4.10;1.87;;;;;;;21.88;43.73;99865.16;5190903;27;20588;-79
2022/10/11 08:58:20;;;;;;;5.10;1.50;;;;;;;22.27;41.51;99885.69;5129953;27;20597;-79
2022/10/11 09:00:52;;;;;;;5.30;1.60;;;;;;;21.85;43.02;99863.59;5129360;27;39676;-80
2022/10/11 09:03:28;;;;;;;6.67;2.00;;;;;;;22.19;42.33;99853.19;5124920;27;41486;-82
2022/10/11 09:06:05;;;;;;;5.10;1.70;;;;;;;22.63;41.34;99865.13;5127795;27;42827;-88
2022/10/11 09:08:44;;;;;;;5.13;1.80;;;;;;;22.44;42.36;99865.22;5128190;27;40462;-83
2022/10/11 09:11:22;;;;;;;2.17;1.17;;;;;;;22.20;43.21;99866.56;5128038;27;39034;-76
2022/10/11 09:14:07;;;;;;;4.77;2.03;;;;;;;22.06;43.43;99861.59;5124329;27;42810;-76
2022/10/11 09:16:47;;;;;;;6.23;1.50;;;;;;;22.26;42.43;99857.00;5125507;27;43768;-77
2022/10/11 09:19:35;;;;;;;5.63;1.63;;;;;;;22.67;42.34;99871.94;5124333;27;42081;-77
2022/10/11 09:22:15;;;;;;;4.80;1.80;;;;;;;22.82;42.60;99864.25;5126626;27;39415;-78
2022/10/11 09:24:59;;;;;;;6.60;1.63;;;;;;;22.85;42.55;99859.41;5127952;27;40961;-80
2022/10/11 09:27:31;;;;;;;3.33;1.80;;;;;;;22.83;42.92;99863.25;5111071;27;42920;-79
2022/10/11 09:30:04;;;;;;;6.97;1.97;;;;;;;22.76;41.91;99870.22;5111739;27;41260;-81
2022/10/11 09:32:38;;;;;;;5.53;1.90;;;;;;;22.56;42.08;99848.69;5128585;27;39016;-80
2022/10/11 09:35:12;;;;;;;5.23;1.63;;;;;;;22.68;41.95;99862.00;5128365;27;42339;-79
2022/10/11 09:37:49;;;;;;;4.47;1.43;;;;;;;22.68;42.50;99875.50;5137248;27;43072;-80
2022/10/11 09:40:35;;;;;;;5.60;1.57;;;;;;;22.54;42.73;99849.81;5140150;27;43131;-82
2022/10/11 09:43:02;;;;;;;7.50;1.90;;;;;;;22.67;42.66;99860.28;5121441;27;40643;-80
2022/10/11 09:45:32;;;;;;;4.97;1.97;;;;;;;22.71;42.46;99857.16;5137879;27;42227;-80
2022/10/11 09:48:02;;;;;;;4.90;1.60;;;;;;;22.62;42.77;99831.06;5135093;27;41875;-80
2022/10/11 09:50:31;;;;;;;3.90;1.50;;;;;;;22.55;42.66;99840.72;5111076;27;41789;-78
2022/10/11 09:53:03;;;;;;;5.00;1.90;;;;;;;22.58;42.14;99857.50;5127652;27;39269;-78
2022/10/11 09:55:34;;;;;;;4.97;1.83;;;;;;;22.78;42.26;99858.28;5108994;27;40819;-81
2022/10/11 09:58:04;;;;;;;6.13;1.80;;;;;;;22.92;42.33;99849.69;5125156;27;42714;-81
2022/10/11 10:00:33;;;;;;;4.50;1.50;;;;;;;23.15;41.78;99855.53;5127915;27;42320;-83
2022/10/11 10:03:04;;;;;;;7.03;1.67;;;;;;;23.57;40.40;99865.81;5127087;27;38713;-78
2022/10/11 10:05:34;;;;;;;4.83;1.90;;;;;;;23.49;40.53;99852.19;5126812;27;41260;-77
2022/10/11 10:08:24;;;;;;;4.90;1.37;;;;;;;23.46;40.62;99855.19;5103563;28;42033;-75
2022/10/11 10:11:01;;;;;;;6.63;1.97;;;;;;;23.26;41.51;99841.78;5110241;28;42933;-83
2022/10/11 10:13:38;;;;;;;6.83;1.93;;;;;;;23.52;41.28;99854.59;5110107;28;40917;-83
2022/10/11 10:16:20;;;;;;;7.83;1.70;;;;;;;23.68;41.21;99851.19;5112883;28;40767;-88
2022/10/11 10:18:52;;;;;;;3.83;1.50;;;;;;;23.75;41.28;99854.97;5110190;28;42721;-83
2022/10/11 10:21:28;;;;;;;4.90;1.80;;;;;;;23.60;40.91;99817.69;5095825;28;42238;-82
2022/10/11 10:23:58;;;;;;;3.80;1.70;;;;;;;24.27;40.09;99864.03;5110125;28;39619;-81
2022/10/11 10:26:27;;;;;;;5.60;1.73;;;;;;;24.45;38.90;99867.56;5113058;28;41495;-81
2022/10/11 10:28:59;;;;;;;3.73;1.40;;;;;;;24.49;39.82;99868.91;5095793;28;42891;-81
2022/10/11 10:31:35;;;;;;;4.27;1.60;;;;;;;24.54;38.57;99876.56;5110632;28;43078;-79
2022/10/11 10:34:07;;;;;;;4.40;1.67;;;;;;;24.61;38.81;99864.94;5095849;28;39967;-78
2022/10/11 10:36:36;;;;;;;7.87;1.97;;;;;;;25.04;38.53;99857.72;5111995;28;42737;-79
2022/10/11 10:39:12;;;;;;;3.10;1.30;;;;;;;26.06;37.50;99882.69;5095590;28;42649;-82
2022/10/11 10:41:40;;;;;;;7.30;2.10;;;;;;;27.20;34.48;99882.44;5112618;28;41975;-81
2022/10/11 10:44:10;;;;;;;3.67;1.53;;;;;;;27.84;34.28;99896.72;5112673;28;39370;-82
2022/10/11 10:46:52;;;;;;;4.13;1.90;;;;;;;28.82;33.13;99903.00;5112400;28;42263;-78
2022/10/11 10:49:26;;;;;;;3.60;1.60;;;;;;;30.09;31.71;99895.31;5112150;28;43725;-77
2022/10/11 10:52:10;;;;;;;4.90;1.70;;;;;;;31.29;29.58;99918.72;5112179;28;40958;-81
2022/10/11 10:54:44;;;;;;;6.40;2.27;;;;;;;32.00;28.95;99912.88;5112115;28;39328;-79
2022/10/11 10:57:20;;;;;;;4.40;1.80;;;;;;;32.54;28.11;99920.06;5111401;28;42957;-76
2022/10/11 11:00:06;;;;;;;5.70;1.90;;;;;;;32.65;28.09;99916.69;5110337;28;42674;-78
2022/10/11 11:02:44;;;;;;;3.93;1.70;;;;;;;33.31;27.12;99917.44;5094496;28;43592;-78
2022/10/11 11:05:26;;;;;;;5.30;1.80;;;;;;;33.56;26.42;99908.44;5109318;28;40990;-83
2022/10/11 11:08:01;;;;;;;5.23;1.80;;;;;;;34.08;25.03;99918.31;5094775;28;41043;-77
2022/10/11 11:10:35;;;;;;;3.73;1.80;;;;;;;34.31;25.12;99902.06;5094546;28;42990;-76
2022/10/11 11:13:18;;;;;;;6.07;1.73;;;;;;;34.17;26.22;99905.97;5108940;28;42285;-79
2022/10/11 11:15:55;;;;;;;6.67;2.27;;;;;;;34.07;25.73;99906.47;5108839;28;40763;-77
2022/10/11 11:18:29;;;;;;;6.10;1.90;;;;;;;33.85;26.62;99908.72;5112134;28;40201;-78
2022/10/11 11:21:14;;;;;;;3.60;1.70;;;;;;;33.22;26.85;99890.41;5109177;28;42715;-79
2022/10/11 11:23:49;;;;;;;3.97;1.83;;;;;;;32.85;27.07;99912.06;5108602;28;43171;-76
2022/10/11 11:26:30;;;;;;;4.03;1.70;;;;;;;33.17;26.82;99882.81;5111354;28;40077;-78
2022/10/11 11:29:12;;;;;;;4.03;1.77;;;;;;;34.46;25.42;99910.84;5111633;28;42754;-77
2022/10/11 11:31:53;;;;;;;3.50;1.57;;;;;;;35.71;24.53;99914.13;5094120;28;42011;-78
2022/10/11 11:34:26;;;;;;;3.40;1.83;;;;;;;37.09;22.55;99921.22;5094339;28;42753;-76
2022/10/11 11:36:56;;;;;;;3.92;1.67;;;;;;;37.44;21.97;99910.09;5110769;28;40927;-78
2022/10/11 11:39:28;;;;;;;6.68;1.98;;;;;;;37.74;21.50;99902.44;5113608;28;42081;-82
2022/10/11 11:42:01;;;;;;;4.30;1.77;;;;;;;38.67;20.94;99912.13;5111420;28;43461;-83
2022/10/11 11:44:31;;;;;;;4.68;2.10;;;;;;;39.37;20.00;99917.84;5095372;28;41685;-81
2022/10/11 11:47:04;;;;;;;3.85;1.98;;;;;;;38.60;20.90;99905.91;5095562;28;38442;-80
2022/10/11 11:49:36;;;;;;;6.63;2.38;;;;;;;38.36;20.65;99905.22;5109184;28;41696;-78
2022/10/11 11:52:06;;;;;;;5.20;1.88;;;;;;;36.19;21.76;99866.31;5094521;28;42023;-80
2022/10/11 11:54:51;;;;;;;4.23;2.13;;;;;;;34.57;24.25;99879.81;5094998;28;41143;-81
2022/10/11 11:57:28;;;;;;;5.67;2.20;;;;;;;33.19;25.19;99876.03;5094714;28;40335;-80
2022/10/11 12:00:02;;;;;;;4.10;1.97;;;;;;;32.57;26.73;99848.34;5094953;28;43257;-79
2022/10/11 12:02:49;;;;;;;4.60;1.70;;;;;;;32.41;27.39;99842.22;5112182;28;41839;-80
2022/10/11 12:05:21;;;;;;;5.73;1.87;;;;;;;31.73;27.51;99843.47;5094637;28;42251;-85
2022/10/11 12:07:54;;;;;;;5.70;2.37;;;;;;;31.50;28.61;99846.56;5093747;28;39387;-84
2022/10/11 12:10:54;;;;;;;4.87;1.83;;;;;;;31.04;29.15;99835.41;5109361;28;41950;-89
2022/10/11 12:13:27;;;;;;;4.83;1.73;;;;;;;30.48;29.42;99818.25;5111590;28;42205;-80
2022/10/11 12:16:01;;;;;;;4.27;1.60;;;;;;;30.42;30.20;99821.78;5110941;28;42678;-81
2022/10/11 12:18:30;;;;;;;3.27;1.67;;;;;;;30.76;29.24;99819.09;5093848;28;39184;-76
2022/10/11 12:21:06;;;;;;;5.13;1.87;;;;;;;31.37;28.54;99819.16;5093683;28;40538;-85
2022/10/11 12:23:46;;;;;;;5.07;2.40;;;;;;;32.31;28.36;99817.16;5110941;28;41693;-83
2022/10/11 12:26:34;;;;;;;4.20;1.93;;;;;;;33.46;27.05;99808.13;5109647;28;42390;-78
2022/10/11 12:29:21;;;;;;;8.10;2.27;;;;;;;34.58;24.97;99834.72;5107563;28;40584;-79
2022/10/11 12:31:51;;;;;;;5.57;2.00;;;;;;;33.34;26.66;99822.78;5110442;28;42701;-80
2022/10/11 12:34:34;;;;;;;5.30;2.00;;;;;;;32.24;27.94;99821.81;5111384;28;43051;-87
2022/10/11 12:37:37;;;;;;;3.80;1.90;;;;;;;31.50;28.09;99808.22;5111436;28;42321;-78
2022/10/11 12:40:33;;;;;;;4.50;1.73;;;;;;;30.25;29.44;99802.97;5088867;28;40888;-77
2022/10/11 12:43:24;;;;;;;5.63;1.90;;;;;;;29.30;30.77;99786.13;5093716;28;42617;-76
2022/10/11 12:45:52;;;;;;;4.33;2.47;;;;;;;28.77;32.06;99776.44;5108564;28;42690;-86
2022/10/11 12:48:44;;;;;;;4.50;2.10;;;;;;;28.26;32.60;99780.97;5094205;28;41452;-81
2022/10/11 12:51:30;;;;;;;5.77;2.33;;;;;;;27.89;33.04;99763.59;5110022;28;39963;-79
2022/10/11 12:54:23;;;;;;;4.77;1.63;;;;;;;27.67;33.42;99769.94;5094838;28;41013;-77
2022/10/11 12:57:13;;;;;;;4.03;1.60;;;;;;;27.88;34.26;99745.56;5110997;28;42939;-88
2022/10/11 12:59:44;;;;;;;5.83;2.40;;;;;;;28.44;33.29;99757.75;5094315;28;42499;-80
2022/10/11 13:02:26;;;;;;;4.83;2.60;;;;;;;28.78;31.50;99770.81;5111939;28;40760;-78
2022/10/11 13:05:06;;;;;;;4.03;2.10;;;;;;;28.36;33.11;99757.00;5107105;28;42739;-82
2022/10/11 13:07:35;;;;;;;5.70;2.00;;;;;;;27.87;33.32;99763.78;5111433;28;43218;-80
2022/10/11 13:10:04;;;;;;;5.07;1.70;;;;;;;27.41;34.46;99743.91;5110456;28;41063;-80
2022/10/11 13:12:40;;;;;;;3.50;2.17;;;;;;;27.15;35.18;99759.75;5111248;28;39963;-80
2022/10/11 13:15:14;;;;;;;5.67;1.87;;;;;;;26.79;35.20;99754.84;5108445;28;41723;-83
2022/10/11 13:17:42;;;;;;;6.40;2.23;;;;;;;26.60;35.66;99746.25;5092736;28;41902;-81
2022/10/11 13:20:18;;;;;;;4.07;1.63;;;;;;;26.51;35.81;99750.03;5092655;28;42292;-84
2022/10/11 13:22:48;;;;;;;3.90;1.70;;;;;;;26.37;36.40;99738.88;5109981;28;41435;-78
2022/10/11 13:25:18;;;;;;;3.17;1.93;;;;;;;27.08;35.50;99753.31;5109753;28;40947;-76
2022/10/11 13:27:49;;;;;;;5.70;2.10;;;;;;;27.74;34.31;99751.81;5092428;28;41467;-76
2022/10/11 13:30:20;;;;;;;6.40;2.33;;;;;;;28.54;33.19;99757.47;5110958;28;41696;-81
2022/10/11 13:32:48;;;;;;;3.50;1.73;;;;;;;28.53;33.45;99758.50;5110976;28;40969;-81
2022/10/11 13:35:20;;;;;;;3.33;1.57;;;;;;;28.09;33.93;99758.44;5110133;28;42624;-79
2022/10/11 13:37:49;;;;;;;5.93;2.30;;;;;;;27.57;34.29;99753.03;5092196;28;42843;-78
2022/10/11 13:40:19;;;;;;;5.73;1.93;;;;;;;27.16;35.03;99745.13;5093373;28;41024;-80
2022/10/11 13:42:50;;;;;;;3.87;2.03;;;;;;;27.11;34.91;99747.53;5111169;27;39725;-76
2022/10/11 13:45:20;;;;;;;3.33;2.00;;;;;;;27.09;35.43;99736.84;5111060;28;42772;-77
2022/10/11 13:47:49;;;;;;;4.33;2.00;;;;;;;27.14;35.67;99730.88;5096749;28;43845;-78
2022/10/11 13:50:29;;;;;;;3.67;1.73;;;;;;;28.31;34.23;99732.22;5114005;28;41881;-79
2022/10/11 13:52:59;;;;;;;3.03;1.77;;;;;;;29.73;32.28;99758.81;5112041;28;40000;-77
2022/10/11 13:55:30;;;;;;;2.73;1.60;;;;;;;30.27;30.51;99759.91;5113820;28;41884;-76
2022/10/11 13:58:01;;;;;;;5.17;1.77;;;;;;;29.86;29.88;99765.25;5096297;28;44227;-78
2022/10/11 14:00:32;;;;;;;6.23;1.80;;;;;;;29.83;30.80;99770.25;5113649;28;42556;-78
2022/10/11 14:03:05;;;;;;;3.87;1.80;;;;;;;29.94;30.88;99756.88;5096885;28;39168;-79
2022/10/11 14:05:36;;;;;;;2.63;1.70;;;;;;;29.87;30.64;99763.34;5113811;28;41607;-78
2022/10/11 14:08:07;;;;;;;5.87;1.83;;;;;;;29.73;30.22;99767.88;5095930;28;41612;-78
2022/10/11 14:10:35;;;;;;;5.37;1.90;;;;;;;29.50;30.54;99765.34;5114017;28;42689;-79
2022/10/11 14:13:21;;;;;;;2.97;1.70;;;;;;;29.20;31.28;99747.38;5113022;28;39878;-80
2022/10/11 14:16:00;;;;;;;3.63;1.73;;;;;;;29.04;32.22;99758.53;5113707;28;41502;-81
2022/10/11 14:18:50;;;;;;;3.80;1.93;;;;;;;28.18;31.99;99758.25;5110219;28;42704;-82
2022/10/11 14:21:33;;;;;;;4.30;1.40;;;;;;;27.35;34.03;99750.06;5095130;28;43356;-77
2022/10/11 14:24:04;;;;;;;4.33;1.73;;;;;;;26.55;35.06;99719.63;5112482;28;40057;-79
2022/10/11 14:26:36;;;;;;;5.87;1.87;;;;;;;26.12;35.66;99737.22;5112695;28;42085;-79
2022/10/11 14:29:08;;;;;;;3.20;1.47;;;;;;;25.65;36.75;99734.44;5095702;28;41967;-78
2022/10/11 14:31:38;;;;;;;2.57;1.43;;;;;;;25.20;36.83;99726.78;5111918;28;42973;-79
2022/10/11 14:34:06;;;;;;;3.70;1.73;;;;;;;24.79;37.20;99723.13;5114101;28;40050;-77
2022/10/11 14:36:33;;;;;;;1.87;1.33;;;;;;;24.27;38.08;99688.06;5095732;28;41657;-82
2022/10/11 14:39:01;;;;;;;1.87;1.10;;;;;;;24.23;38.56;99711.09;5096377;28;41925;-81
2022/10/11 14:41:29;;;;;;;4.33;1.70;;;;;;;24.08;38.88;99708.09;5114595;28;42655;-79
2022/10/11 14:43:57;;;;;;;2.37;1.33;;;;;;;23.51;39.02;99655.50;5113392;28;40023;-78
2022/10/11 14:46:27;;;;;;;4.33;1.80;;;;;;;23.20;39.72;99634.31;5095293;28;42739;-78
2022/10/11 14:48:55;;;;;;;4.27;1.83;;;;;;;23.11;39.99;99692.00;5113948;28;42605;-78
2022/10/11 14:51:25;;;;;;;4.00;1.80;;;;;;;22.91;39.79;99706.66;5095282;28;40675;-79
2022/10/11 14:53:54;;;;;;;3.07;1.83;;;;;;;22.56;40.99;99685.84;5113561;27;39747;-79
2022/10/11 14:56:23;;;;;;;2.60;1.80;;;;;;;22.38;41.26;99693.88;5095109;28;40625;-79
2022/10/11 14:58:51;;;;;;;4.40;1.53;;;;;;;22.18;42.21;99686.91;5114187;28;43660;-77
2022/10/11 15:01:18;;;;;;;2.73;1.83;;;;;;;21.99;42.35;99693.25;5112711;28;41173;-78
2022/10/11 15:03:47;;;;;;;2.87;1.40;;;;;;;21.64;42.47;99672.28;5114318;28;40012;-79
2022/10/11 15:06:18;;;;;;;3.77;1.60;;;;;;;21.59;43.07;99685.38;5095119;28;43766;-76
2022/10/11 15:08:46;;;;;;;3.40;1.73;;;;;;;21.48;43.46;99688.25;5109644;28;43790;-80
2022/10/11 15:11:17;;;;;;;2.77;1.60;;;;;;;21.38;43.94;99682.03;5094232;28;44685;-77
2022/10/11 15:13:44;;;;;;;1.60;1.50;;;;;;;21.26;44.07;99675.94;5111778;28;39136;-78
2022/10/11 15:16:15;;;;;;;3.23;2.00;;;;;;;21.07;44.54;99655.22;5112773;28;42699;-77
2022/10/11 15:18:49;;;;;;;2.00;1.43;;;;;;;21.10;44.50;99684.56;5094395;28;41766;-77
2022/10/11 15:21:20;;;;;;;2.37;1.67;;;;;;;20.98;44.84;99685.72;5110328;28;42260;-76
2022/10/11 15:23:49;;;;;;;4.40;1.50;;;;;;;20.84;45.74;99678.03;5094555;28;39552;-78
2022/10/11 15:26:19;;;;;;;2.07;1.70;;;;;;;20.73;45.53;99680.88;5113315;28;42179;-77
2022/10/11 15:28:48;;;;;;;3.63;1.80;;;;;;;20.60;45.49;99680.28;5112447;28;42810;-78